createdAt,value
2022-09-18T00:01:13.029Z,1.83
2022-09-18T00:03:41.076Z,1.15
2022-09-18T00:06:11.313Z,2.85
2022-09-18T00:08:39.314Z,1.92
2022-09-18T00:11:08.082Z,1.67
2022-09-18T00:13:37.807Z,2.72
2022-09-18T00:16:06.886Z,1.58
2022-09-18T00:18:34.264Z,1.38
2022-09-18T00:21:20.028Z,1.13
2022-09-18T00:23:47.506Z,0.95
2022-09-18T00:26:16.494Z,1.83
2022-09-18T00:28:43.652Z,0.82
2022-09-18T00:31:16.357Z,1.23
2022-09-18T00:33:44.067Z,0.40
2022-09-18T00:36:14.738Z,0.82
2022-09-18T00:38:42.605Z,0.85
2022-09-18T00:41:32.746Z,1.73
2022-09-18T00:44:33.719Z,0.63
2022-09-18T00:47:07.418Z,1.73
2022-09-18T00:49:35.508Z,2.25
2022-09-18T00:52:02.868Z,1.27
2022-09-18T00:54:55.892Z,1.77
2022-09-18T00:57:28.905Z,2.03
2022-09-18T00:59:56.793Z,1.75
2022-09-18T01:02:23.906Z,1.55
2022-09-18T01:04:51.911Z,1.23
2022-09-18T01:07:34.022Z,2.55
2022-09-18T01:10:40.949Z,1.48
2022-09-18T01:13:33.974Z,2.35
2022-09-18T01:16:32.509Z,1.02
2022-09-18T01:19:37.288Z,2.08
2022-09-18T01:22:23.664Z,2.65
2022-09-18T01:24:53.793Z,1.35
2022-09-18T01:27:36.772Z,1.75
2022-09-18T01:30:11.916Z,1.38
2022-09-18T01:32:56.170Z,1.73
2022-09-18T01:36:04.535Z,1.27
2022-09-18T01:38:41.611Z,2.35
2022-09-18T01:41:16.687Z,1.30
2022-09-18T01:43:45.790Z,1.92
2022-09-18T01:46:18.537Z,2.00
2022-09-18T01:48:58.278Z,3.22
2022-09-18T01:51:52.088Z,1.67
2022-09-18T01:54:24.921Z,1.33
2022-09-18T01:57:08.331Z,2.63
2022-09-18T01:59:51.097Z,1.50
2022-09-18T02:02:29.310Z,2.05
2022-09-18T02:05:01.087Z,2.38
2022-09-18T02:08:14.449Z,1.35
2022-09-18T02:10:51.342Z,2.90
2022-09-18T02:13:24.881Z,2.83
2022-09-18T02:15:59.367Z,2.17
2022-09-18T02:18:30.284Z,0.95
2022-09-18T02:20:58.782Z,3.40
2022-09-18T02:23:28.636Z,2.22
2022-09-18T02:26:04.492Z,3.10
2022-09-18T02:28:33.715Z,1.08
2022-09-18T02:31:01.349Z,3.90
2022-09-18T02:33:34.304Z,0.63
2022-09-18T02:36:07.905Z,2.15
2022-09-18T02:39:03.994Z,3.28
2022-09-18T02:41:58.932Z,1.48
2022-09-18T02:44:36.418Z,2.20
2022-09-18T02:50:17.284Z,0.93
2022-09-18T02:52:52.136Z,2.42
2022-09-18T02:55:24.063Z,1.77
2022-09-18T02:58:09.721Z,2.42
2022-09-18T03:00:41.956Z,2.28
2022-09-18T03:03:18.092Z,2.67
2022-09-18T03:06:00.386Z,3.80
2022-09-18T03:08:27.833Z,5.93
2022-09-18T03:10:55.874Z,4.10
2022-09-18T03:13:22.958Z,4.43
2022-09-18T03:15:50.078Z,7.47
2022-09-18T03:18:19.499Z,5.60
2022-09-18T03:20:47.281Z,6.40
2022-09-18T03:23:14.504Z,4.88
2022-09-18T03:25:43.220Z,5.72
2022-09-18T03:28:11.488Z,5.18
2022-09-18T03:30:41.546Z,8.15
2022-09-18T03:33:08.539Z,6.03
2022-09-18T03:35:36.055Z,7.28
2022-09-18T03:38:03.694Z,5.72
2022-09-18T03:40:31.837Z,5.05
2022-09-18T03:43:02.783Z,4.00
2022-09-18T03:45:29.933Z,5.32
2022-09-18T03:47:56.921Z,5.93
2022-09-18T03:50:25.056Z,7.35
2022-09-18T03:52:53.154Z,5.20
2022-09-18T03:55:37.219Z,5.75
2022-09-18T03:58:23.141Z,5.38
2022-09-18T04:01:09.071Z,8.25
2022-09-18T04:03:56.971Z,5.75
2022-09-18T04:06:44.204Z,6.05
2022-09-18T04:09:40.900Z,5.50
2022-09-18T04:12:08.760Z,7.90
2022-09-18T04:14:35.926Z,5.55
2022-09-18T04:17:03.630Z,6.72
2022-09-18T04:19:30.879Z,8.25
2022-09-18T04:21:59.682Z,8.18
2022-09-18T04:24:27.470Z,11.10
2022-09-18T04:26:54.845Z,6.65
2022-09-18T04:29:24.512Z,6.85
2022-09-18T04:31:51.940Z,5.90
2022-09-18T04:34:21.791Z,6.38
2022-09-18T04:36:49.150Z,8.25
2022-09-18T04:39:16.393Z,3.60
2022-09-18T04:41:45.624Z,6.70
2022-09-18T04:44:14.183Z,7.00
2022-09-18T04:46:43.487Z,7.85
2022-09-18T04:49:10.945Z,6.57
2022-09-18T04:51:38.540Z,7.28
2022-09-18T04:54:05.877Z,5.47
2022-09-18T04:56:36.541Z,6.68
2022-09-18T04:59:04.418Z,6.15
2022-09-18T05:01:32.726Z,3.72
2022-09-18T05:04:03.558Z,5.65
2022-09-18T05:06:44.668Z,8.70
2022-09-18T05:09:11.803Z,6.28
2022-09-18T05:11:40.267Z,9.82
2022-09-18T05:14:07.947Z,4.40
2022-09-18T05:16:37.440Z,8.35
2022-09-18T05:19:23.324Z,5.40
2022-09-18T05:21:54.844Z,8.85
2022-09-18T05:24:21.982Z,5.38
2022-09-18T05:26:50.820Z,5.35
2022-09-18T05:29:20.508Z,4.57
2022-09-18T05:31:49.222Z,5.90
2022-09-18T05:34:16.892Z,5.82
2022-09-18T05:36:45.485Z,10.43
2022-09-18T05:39:17.283Z,6.28
2022-09-18T05:41:48.273Z,6.63
2022-09-18T05:44:15.335Z,8.05
2022-09-18T05:46:42.529Z,5.43
2022-09-18T05:49:11.376Z,10.57
2022-09-18T05:51:39.330Z,6.35
2022-09-18T05:54:06.804Z,4.10
2022-09-18T05:56:39.981Z,7.65
2022-09-18T05:59:07.195Z,9.10
2022-09-18T06:01:34.345Z,5.65
2022-09-18T06:04:21.819Z,6.80
2022-09-18T06:06:58.493Z,5.93
2022-09-18T06:09:26.681Z,7.72
2022-09-18T06:11:53.803Z,5.93
2022-09-18T06:14:22.257Z,5.63
2022-09-18T06:16:49.854Z,8.13
2022-09-18T06:19:17.264Z,7.10
2022-09-18T06:21:47.150Z,9.93
2022-09-18T06:24:17.293Z,7.20
2022-09-18T06:26:56.288Z,4.15
2022-09-18T06:29:23.484Z,5.47
2022-09-18T06:31:59.324Z,6.10
2022-09-18T06:34:27.746Z,4.40
2022-09-18T06:36:59.781Z,11.27
2022-09-18T06:39:39.471Z,8.52
2022-09-18T06:42:06.925Z,7.07
2022-09-18T06:45:06.823Z,6.55
2022-09-18T06:47:34.518Z,7.60
2022-09-18T06:50:02.004Z,6.78
2022-09-18T06:52:31.489Z,5.00
2022-09-18T06:55:01.813Z,7.60
2022-09-18T06:57:32.935Z,5.38
2022-09-18T07:00:00.022Z,3.88
2022-09-18T07:02:29.507Z,8.32
2022-09-18T07:05:21.092Z,4.97
2022-09-18T07:07:48.159Z,6.20
2022-09-18T07:10:16.081Z,5.22
2022-09-18T07:12:49.315Z,9.13
2022-09-18T07:15:19.964Z,2.70
2022-09-18T07:17:48.092Z,9.63
2022-09-18T07:20:17.567Z,6.40
2022-09-18T07:22:56.813Z,4.70
2022-09-18T07:25:36.317Z,5.47
2022-09-18T07:28:08.057Z,5.97
2022-09-18T07:30:41.100Z,8.20
2022-09-18T07:33:09.822Z,6.35
2022-09-18T07:38:13.781Z,4.97
2022-09-18T07:40:50.805Z,5.22
2022-09-18T07:43:38.498Z,4.82
2022-09-18T07:46:08.735Z,7.70
2022-09-18T07:48:38.947Z,8.85
2022-09-18T07:51:11.850Z,7.97
2022-09-18T07:53:41.219Z,6.65
2022-09-18T07:56:12.448Z,6.95
2022-09-18T07:58:41.807Z,9.40
2022-09-18T08:01:23.009Z,5.63
2022-09-18T08:03:53.664Z,7.53
2022-09-18T08:06:20.758Z,6.13
2022-09-18T08:09:07.007Z,7.50
2022-09-18T08:11:54.876Z,8.82
2022-09-18T08:14:37.467Z,4.57
2022-09-18T08:17:19.483Z,12.25
2022-09-18T08:20:11.079Z,4.75
2022-09-18T08:22:51.035Z,8.40
2022-09-18T08:25:21.149Z,5.75
2022-09-18T08:27:51.548Z,4.90
2022-09-18T08:30:30.310Z,4.88
2022-09-18T08:33:05.940Z,5.38
2022-09-18T08:35:33.711Z,5.63
2022-09-18T08:38:12.020Z,6.38
2022-09-18T08:41:35.286Z,7.40
2022-09-18T08:44:24.513Z,5.75
2022-09-18T08:47:05.716Z,4.18
2022-09-18T08:49:57.942Z,4.13
2022-09-18T08:52:33.158Z,4.95
2022-09-18T08:55:31.230Z,4.05
2022-09-18T08:58:32.727Z,3.13
2022-09-18T09:01:06.762Z,4.63
2022-09-18T09:04:01.543Z,4.97
2022-09-18T09:06:52.318Z,3.83
2022-09-18T09:09:40.953Z,6.30
2022-09-18T09:12:10.844Z,3.85
2022-09-18T09:15:08.236Z,3.13
2022-09-18T09:17:55.367Z,7.43
2022-09-18T09:20:45.820Z,7.10
2022-09-18T09:23:34.610Z,5.55
2022-09-18T09:26:15.197Z,4.80
2022-09-18T09:29:29.344Z,3.70
2022-09-18T09:32:29.893Z,3.83
2022-09-18T09:35:42.874Z,4.57
2022-09-18T09:38:47.070Z,5.38
2022-09-18T09:41:21.223Z,5.32
2022-09-18T09:43:58.691Z,4.78
2022-09-18T09:46:40.806Z,4.03
2022-09-18T09:49:33.236Z,6.28
2022-09-18T09:52:26.300Z,3.50
2022-09-18T09:55:01.295Z,4.70
2022-09-18T09:57:55.671Z,6.03
2022-09-18T10:00:23.957Z,5.18
2022-09-18T10:03:24.810Z,6.88
2022-09-18T10:06:08.616Z,3.22
2022-09-18T10:08:42.828Z,4.32
2022-09-18T10:11:13.410Z,3.47
2022-09-18T10:13:53.110Z,4.50
2022-09-18T10:16:27.291Z,3.15
2022-09-18T10:18:57.559Z,2.63
2022-09-18T10:21:28.845Z,3.17
2022-09-18T10:24:16.059Z,2.67
2022-09-18T10:27:00.729Z,2.50
2022-09-18T10:29:32.753Z,2.20
2022-09-18T10:32:04.840Z,3.30
2022-09-18T10:34:41.592Z,4.53
2022-09-18T10:37:38.030Z,2.38
2022-09-18T10:40:34.533Z,2.65
2022-09-18T10:43:04.328Z,5.18
2022-09-18T10:45:38.083Z,1.95
2022-09-18T10:48:27.832Z,3.25
2022-09-18T10:50:59.856Z,1.80
2022-09-18T10:53:38.858Z,3.63
2022-09-18T10:56:20.312Z,2.90
2022-09-18T10:58:50.292Z,3.03
2022-09-18T11:01:18.054Z,1.50
2022-09-18T11:03:56.415Z,2.15
2022-09-18T11:06:31.279Z,2.38
2022-09-18T11:09:10.943Z,3.03
2022-09-18T11:14:28.521Z,2.17
2022-09-18T11:17:07.463Z,3.05
2022-09-18T11:19:39.888Z,1.90
2022-09-18T11:22:44.490Z,3.05
2022-09-18T11:25:32.103Z,3.45
2022-09-18T11:28:23.498Z,4.68
2022-09-18T11:31:19.394Z,4.20
2022-09-18T11:33:56.560Z,3.90
2022-09-18T11:36:34.146Z,3.28
2022-09-18T11:39:16.109Z,3.13
2022-09-18T11:41:49.496Z,2.78
2022-09-18T11:44:31.651Z,2.90
2022-09-18T11:47:20.013Z,3.72
2022-09-18T11:50:14.689Z,4.28
2022-09-18T11:52:45.665Z,4.18
2022-09-18T11:55:49.781Z,4.07
2022-09-18T11:58:33.036Z,1.65
2022-09-18T12:01:21.826Z,4.88
2022-09-18T12:04:02.804Z,2.58
2022-09-18T12:06:34.468Z,2.63
2022-09-18T12:09:11.583Z,2.25
2022-09-18T12:11:56.579Z,1.92
2022-09-18T12:14:45.083Z,2.25
2022-09-18T12:17:36.738Z,2.40
2022-09-18T12:20:30.885Z,3.80
2022-09-18T12:23:02.576Z,1.55
2022-09-18T12:25:47.093Z,2.22
2022-09-18T12:28:34.360Z,3.67
2022-09-18T12:31:15.463Z,2.15
2022-09-18T12:34:01.483Z,1.73
2022-09-18T12:36:41.831Z,4.53
2022-09-18T12:39:29.627Z,3.15
2022-09-18T12:42:45.447Z,1.38
2022-09-18T12:45:30.528Z,4.82
2022-09-18T12:48:19.425Z,3.53
2022-09-18T12:50:53.495Z,2.20
2022-09-18T12:53:52.055Z,3.97
2022-09-18T12:56:34.710Z,3.33
2022-09-18T12:59:21.306Z,1.85
2022-09-18T13:02:10.699Z,2.13
2022-09-18T13:04:58.777Z,1.15
2022-09-18T13:07:32.437Z,2.05
2022-09-18T13:10:11.334Z,2.50
2022-09-18T13:12:51.092Z,1.85
2022-09-18T13:15:22.590Z,3.63
2022-09-18T13:17:57.918Z,2.28
2022-09-18T13:20:42.945Z,1.95
2022-09-18T13:23:26.089Z,1.48
2022-09-18T13:25:54.158Z,3.05
2022-09-18T13:28:22.867Z,3.92
2022-09-18T13:31:15.910Z,2.05
2022-09-18T13:34:17.596Z,3.58
2022-09-18T13:36:46.535Z,3.47
2022-09-18T13:39:24.814Z,2.42
2022-09-18T13:41:55.296Z,2.13
2022-09-18T13:44:25.029Z,3.38
2022-09-18T13:46:54.822Z,3.40
2022-09-18T13:49:39.947Z,3.42
2022-09-18T13:52:29.627Z,1.98
2022-09-18T13:55:14.833Z,2.72
2022-09-18T13:57:43.550Z,3.03
2022-09-18T14:00:34.042Z,1.92
2022-09-18T14:03:07.345Z,1.88
2022-09-18T14:05:39.859Z,2.55
2022-09-18T14:08:14.167Z,4.90
2022-09-18T14:11:17.605Z,1.88
2022-09-18T14:13:54.204Z,2.60
2022-09-18T14:16:22.411Z,2.30
2022-09-18T14:18:55.261Z,2.63
2022-09-18T14:21:26.654Z,1.65
2022-09-18T14:24:23.444Z,2.90
2022-09-18T14:27:02.872Z,6.57
2022-09-18T14:29:32.875Z,5.03
2022-09-18T14:32:02.501Z,3.10
2022-09-18T14:34:42.276Z,3.20
2022-09-18T14:37:33.000Z,2.47
2022-09-18T14:40:00.807Z,2.47
2022-09-18T14:42:42.957Z,2.47
2022-09-18T14:45:13.261Z,2.08
2022-09-18T14:47:43.631Z,2.15
2022-09-18T14:50:35.168Z,0.90
2022-09-18T14:53:20.313Z,2.75
2022-09-18T14:56:15.753Z,0.95
2022-09-18T14:58:46.761Z,0.88
2022-09-18T15:01:21.747Z,2.17
2022-09-18T15:03:50.520Z,0.70
2022-09-18T15:06:32.241Z,1.23
2022-09-18T15:08:59.804Z,1.55
2022-09-18T15:11:37.782Z,0.52
2022-09-18T15:14:29.707Z,1.25
2022-09-18T15:17:01.788Z,1.52
2022-09-18T15:19:31.269Z,0.45
2022-09-18T15:22:03.783Z,0.63
2022-09-18T15:24:31.872Z,0.63
2022-09-18T15:27:04.099Z,1.30
2022-09-18T15:29:45.529Z,1.65
2022-09-18T15:32:25.762Z,0.60
2022-09-18T15:34:54.186Z,0.43
2022-09-18T15:37:24.240Z,1.95
2022-09-18T15:40:19.026Z,1.25
2022-09-18T15:43:02.388Z,0.75
2022-09-18T15:45:32.608Z,1.25
2022-09-18T15:48:02.696Z,1.50
2022-09-18T15:50:39.690Z,0.93
2022-09-18T15:53:17.745Z,1.10
2022-09-18T15:55:53.894Z,2.13
2022-09-18T15:58:37.273Z,1.45
2022-09-18T16:01:07.387Z,1.15
2022-09-18T16:03:37.035Z,2.75
2022-09-18T16:06:06.434Z,0.70
2022-09-18T16:08:37.684Z,0.98
2022-09-18T16:11:06.670Z,1.10
2022-09-18T16:13:39.078Z,1.35
2022-09-18T16:16:11.618Z,1.50
2022-09-18T16:18:59.488Z,0.93
2022-09-18T16:21:30.322Z,1.38
2022-09-18T16:24:01.562Z,2.35
2022-09-18T16:26:36.482Z,1.55
2022-09-18T16:29:18.136Z,3.20
2022-09-18T16:31:46.973Z,2.55
2022-09-18T16:34:28.092Z,2.22
2022-09-18T16:36:56.299Z,2.13
2022-09-18T16:39:25.560Z,1.88
2022-09-18T16:41:53.262Z,1.83
2022-09-18T16:44:20.588Z,2.35
2022-09-18T16:47:00.890Z,3.13
2022-09-18T16:49:35.765Z,1.60
2022-09-18T16:52:04.151Z,1.65
2022-09-18T16:54:31.721Z,1.85
2022-09-18T16:57:05.122Z,1.75
2022-09-18T16:59:33.064Z,1.35
2022-09-18T17:02:05.133Z,1.83
2022-09-18T17:04:33.974Z,1.42
2022-09-18T17:07:01.860Z,1.50
2022-09-18T17:09:29.754Z,1.63
2022-09-18T17:11:58.154Z,2.00
2022-09-18T17:14:25.788Z,0.95
2022-09-18T17:16:52.900Z,1.30
2022-09-18T17:19:20.650Z,1.27
2022-09-18T17:21:49.470Z,1.08
2022-09-18T17:24:17.546Z,2.50
2022-09-18T17:26:45.007Z,1.92
2022-09-18T17:29:12.125Z,2.03
2022-09-18T17:31:40.622Z,1.33
2022-09-18T17:34:07.715Z,2.60
2022-09-18T17:36:36.992Z,4.47
2022-09-18T17:39:04.456Z,5.13
2022-09-18T17:41:32.631Z,3.97
2022-09-18T17:44:00.081Z,2.97
2022-09-18T17:46:27.435Z,4.22
2022-09-18T17:48:56.717Z,3.15
2022-09-18T17:51:28.406Z,3.95
2022-09-18T17:54:00.413Z,1.80
2022-09-18T17:56:30.129Z,2.65
2022-09-18T17:59:00.036Z,3.58
2022-09-18T18:01:29.046Z,2.85
2022-09-18T18:03:57.390Z,2.80
2022-09-18T18:06:24.949Z,3.00
2022-09-18T18:08:52.212Z,2.42
2022-09-18T18:11:23.100Z,3.38
2022-09-18T18:13:53.923Z,3.45
2022-09-18T18:16:27.643Z,2.50
2022-09-18T18:19:06.956Z,3.72
2022-09-18T18:21:34.944Z,2.55
2022-09-18T18:24:05.436Z,3.53
2022-09-18T18:26:32.783Z,2.05
2022-09-18T18:29:02.446Z,2.35
2022-09-18T18:31:31.372Z,2.03
2022-09-18T18:33:59.765Z,1.50
2022-09-18T18:36:31.635Z,3.42
2022-09-18T18:39:00.887Z,1.58
2022-09-18T18:41:30.235Z,3.47
2022-09-18T18:43:59.802Z,1.58
2022-09-18T18:46:29.384Z,1.63
2022-09-18T18:49:01.933Z,2.05
2022-09-18T18:51:32.229Z,2.92
2022-09-18T18:54:02.947Z,1.50
2022-09-18T18:56:33.481Z,1.35
2022-09-18T18:59:03.043Z,1.98
2022-09-18T19:01:31.226Z,1.00
2022-09-18T19:04:02.359Z,1.40
2022-09-18T19:06:31.751Z,2.50
2022-09-18T19:09:02.051Z,1.35
2022-09-18T19:11:31.736Z,1.50
2022-09-18T19:14:00.870Z,2.10
2022-09-18T19:16:30.047Z,1.67
2022-09-18T19:18:59.846Z,1.95
2022-09-18T19:21:29.384Z,2.28
2022-09-18T19:23:59.481Z,1.20
2022-09-18T19:26:28.787Z,1.10
2022-09-18T19:28:59.800Z,1.30
2022-09-18T19:31:29.370Z,1.00
2022-09-18T19:33:58.151Z,0.77
2022-09-18T19:36:27.795Z,1.23
2022-09-18T19:38:57.732Z,1.05
2022-09-18T19:42:00.610Z,1.15
2022-09-18T19:44:33.974Z,0.65
2022-09-18T19:47:04.632Z,1.23
2022-09-18T19:49:37.944Z,1.55
2022-09-18T19:52:18.383Z,1.08
2022-09-18T19:54:47.200Z,1.48
2022-09-18T19:57:14.530Z,1.45
2022-09-18T19:59:42.576Z,0.93
2022-09-18T20:02:15.714Z,0.88
2022-09-18T20:04:42.885Z,1.10
2022-09-18T20:07:10.498Z,0.63
2022-09-18T20:09:37.667Z,0.98
2022-09-18T20:12:05.202Z,1.00
2022-09-18T20:14:32.229Z,0.95
2022-09-18T20:16:59.184Z,0.60
2022-09-18T20:19:27.848Z,0.80
2022-09-18T20:21:54.894Z,0.45
2022-09-18T20:24:22.228Z,1.30
2022-09-18T20:26:50.143Z,1.42
2022-09-18T20:29:17.211Z,1.05
2022-09-18T20:31:46.024Z,0.57
2022-09-18T20:34:13.896Z,0.98
2022-09-18T20:36:41.094Z,0.60
2022-09-18T20:39:08.776Z,2.15
2022-09-18T20:41:35.791Z,1.90
2022-09-18T20:44:05.554Z,1.08
2022-09-18T20:46:36.833Z,0.47
2022-09-18T20:49:05.325Z,1.15
2022-09-18T20:51:35.964Z,1.55
2022-09-18T20:54:07.363Z,1.33
2022-09-18T20:56:41.415Z,1.42
2022-09-18T20:59:14.432Z,1.95
2022-09-18T21:01:42.280Z,2.53
2022-09-18T21:04:17.367Z,1.05
2022-09-18T21:06:47.480Z,1.05
2022-09-18T21:09:15.539Z,1.20
2022-09-18T21:11:44.868Z,2.08
2022-09-18T21:14:18.120Z,1.13
2022-09-18T21:16:45.881Z,0.55
2022-09-18T21:19:17.159Z,0.60
2022-09-18T21:21:44.351Z,1.35
2022-09-18T21:24:11.449Z,1.17
2022-09-18T21:26:45.984Z,0.85
2022-09-18T21:29:23.439Z,0.63
2022-09-18T21:31:53.018Z,2.28
2022-09-18T21:34:24.574Z,0.50
2022-09-18T21:37:00.208Z,1.00
2022-09-18T21:39:30.979Z,1.35
2022-09-18T21:41:59.454Z,1.10
2022-09-18T21:44:29.801Z,0.80
2022-09-18T21:46:59.782Z,1.20
2022-09-18T21:49:29.129Z,2.15
2022-09-18T21:52:03.670Z,1.52
2022-09-18T21:54:34.590Z,2.10
2022-09-18T21:57:01.729Z,1.15
2022-09-18T21:59:30.898Z,1.33
2022-09-18T22:01:59.462Z,1.10
2022-09-18T22:04:28.805Z,1.00
2022-09-18T22:06:58.746Z,1.30
2022-09-18T22:09:28.671Z,1.33
2022-09-18T22:11:56.504Z,3.72
2022-09-18T22:14:31.518Z,1.48
2022-09-18T22:17:05.727Z,3.25
2022-09-18T22:19:36.972Z,1.10
2022-09-18T22:22:06.661Z,1.92
2022-09-18T22:24:33.716Z,0.65
2022-09-18T22:27:03.574Z,1.02
2022-09-18T22:29:34.476Z,0.80
2022-09-18T22:32:02.347Z,2.15
2022-09-18T22:34:30.927Z,0.65
2022-09-18T22:36:59.457Z,1.15
2022-09-18T22:39:27.011Z,0.93
2022-09-18T22:41:55.380Z,1.13
2022-09-18T22:44:22.865Z,1.65
2022-09-18T22:46:54.046Z,1.70
2022-09-18T22:49:22.848Z,0.95
2022-09-18T22:51:50.883Z,1.65
2022-09-18T22:54:23.811Z,2.08
2022-09-18T22:56:53.182Z,1.67
2022-09-18T22:59:23.199Z,1.10
2022-09-18T23:02:02.607Z,2.28
2022-09-18T23:04:31.836Z,1.40
2022-09-18T23:06:59.458Z,1.58
2022-09-18T23:09:27.521Z,0.32
2022-09-18T23:11:54.866Z,1.30
2022-09-18T23:14:26.101Z,0.60
2022-09-18T23:16:53.586Z,0.70
2022-09-18T23:19:32.340Z,1.00
2022-09-18T23:21:59.626Z,2.80
2022-09-18T23:24:27.097Z,0.40
2022-09-18T23:26:56.867Z,1.30
2022-09-18T23:29:25.457Z,1.02
2022-09-18T23:31:55.233Z,1.08
2022-09-18T23:34:25.438Z,0.90
2022-09-18T23:36:54.795Z,1.35
2022-09-18T23:39:33.923Z,1.25
2022-09-18T23:42:02.802Z,3.90
2022-09-18T23:44:34.589Z,0.50
2022-09-18T23:47:01.929Z,1.65
2022-09-18T23:49:29.835Z,0.55
2022-09-18T23:51:59.692Z,1.17
2022-09-18T23:54:29.742Z,0.63
2022-09-18T23:56:57.019Z,1.80
2022-09-18T23:59:26.380Z,0.93
